KLUM

Menomonie Municipal-Score Field Airport

Menomonie, Wisconsin, USA
METAR KLUM 180215Z AUTO 00000KT 10SM CLR 23/18 A3006 RMK AO2 T02290176
Observed Flight Rules
Aug-18 @ 02:15 UTC (14 minutes ago) Visual Flight Rules
Visibility Clouds
10 miles
  • Clear skies
Temperatures Readings
Current 23°C / 73°F
Dewpoint 18°C / 64°F
Humidity 74%
Altimeter 30.06" Hg
Pressure 1018 hPa
Elevation 273
METAR KLUM 180215Z AUTO 00000KT 10SM CLR 23/18 A3006 RMK AO2 T02290176
Observed Flight Rules
Aug-18 @ 02:15 UTC
(14 minutes ago)
VFR
Clouds
  • Clear skies
Temperature Dewpoint
23°C / 73°F 18°C / 64°F
Humidity Altimeter Pressure
74% 30.06" Hg 1018 hPa